createdAt,value
2019-03-19T00:00:10.652Z,3.14
2019-03-19T00:02:36.469Z,3.14
2019-03-19T00:05:03.498Z,3.16
2019-03-19T00:07:29.311Z,3.11
2019-03-19T00:09:55.145Z,3.09
2019-03-19T00:12:21.229Z,3.09
2019-03-19T00:14:47.293Z,3.10
2019-03-19T00:17:13.123Z,3.05
2019-03-19T00:19:39.181Z,3.03
2019-03-19T00:22:08.057Z,2.98
2019-03-19T00:24:33.889Z,3.00
2019-03-19T00:27:02.961Z,3.01
2019-03-19T00:29:28.781Z,3.01
2019-03-19T00:31:57.592Z,3.03
2019-03-19T00:34:23.723Z,3.00
2019-03-19T00:36:49.594Z,2.56
2019-03-19T00:39:15.433Z,2.67
2019-03-19T00:41:46.376Z,2.72
2019-03-19T00:44:12.196Z,2.78
2019-03-19T00:46:38.025Z,2.72
2019-03-19T00:49:03.833Z,2.66
2019-03-19T00:51:29.684Z,2.71
2019-03-19T00:53:58.792Z,2.72
2019-03-19T00:56:24.626Z,2.67
2019-03-19T00:58:53.446Z,2.79
2019-03-19T01:01:19.604Z,2.82
2019-03-19T01:03:46.196Z,2.77
2019-03-19T01:06:12.342Z,2.81
2019-03-19T01:08:40.932Z,2.81
2019-03-19T01:11:06.768Z,2.85
2019-03-19T01:13:37.517Z,2.82
2019-03-19T01:16:03.478Z,2.82
2019-03-19T01:18:32.408Z,2.88
2019-03-19T01:20:58.241Z,2.92
2019-03-19T01:23:24.079Z,2.90
2019-03-19T01:25:55.653Z,2.90
2019-03-19T01:28:17.996Z,2.97
2019-03-19T01:30:43.838Z,2.71
2019-03-19T01:33:09.656Z,3.01
2019-03-19T01:35:36.830Z,3.03
2019-03-19T01:38:02.907Z,3.02
2019-03-19T01:40:33.647Z,2.99
2019-03-19T01:42:59.725Z,2.89
2019-03-19T01:45:26.519Z,2.78
2019-03-19T01:47:52.600Z,2.86
2019-03-19T01:50:20.763Z,2.82
2019-03-19T01:52:46.826Z,2.82
2019-03-19T01:55:17.869Z,2.84
2019-03-19T01:57:43.670Z,2.81
2019-03-19T02:00:12.212Z,2.87
2019-03-19T02:02:38.301Z,2.91
2019-03-19T02:05:05.031Z,2.96
2019-03-19T02:07:30.847Z,3.04
2019-03-19T02:09:56.675Z,3.04
2019-03-19T02:12:22.795Z,2.95
2019-03-19T02:14:48.616Z,2.77
2019-03-19T02:17:16.692Z,2.84
2019-03-19T02:19:42.531Z,2.91
2019-03-19T02:22:13.273Z,2.94
2019-03-19T02:24:39.081Z,2.93
2019-03-19T02:27:08.005Z,2.86
2019-03-19T02:29:34.010Z,2.91
2019-03-19T02:32:03.106Z,2.94
2019-03-19T02:34:28.953Z,2.99
2019-03-19T02:36:54.791Z,3.02
2019-03-19T02:39:20.635Z,3.08
2019-03-19T02:41:46.472Z,3.04
2019-03-19T02:44:12.453Z,3.05
2019-03-19T02:46:38.329Z,3.01
2019-03-19T02:49:08.694Z,3.10
2019-03-19T02:51:34.791Z,3.09
2019-03-19T02:54:01.900Z,3.09
2019-03-19T02:56:33.226Z,3.16
2019-03-19T02:58:58.946Z,3.14
2019-03-19T03:01:24.751Z,3.05
2019-03-19T03:03:53.698Z,2.48
2019-03-19T03:06:19.526Z,3.12
2019-03-19T03:08:48.331Z,3.11
2019-03-19T03:11:14.440Z,3.16
2019-03-19T03:13:40.271Z,3.00
2019-03-19T03:16:06.140Z,3.04
2019-03-19T03:18:32.031Z,2.98
2019-03-19T03:20:57.841Z,3.06
2019-03-19T03:23:23.725Z,3.03
2019-03-19T03:25:52.839Z,2.96
2019-03-19T03:28:18.912Z,2.84
2019-03-19T03:30:47.822Z,2.86
2019-03-19T03:33:13.639Z,2.84
2019-03-19T03:35:42.777Z,2.80
2019-03-19T03:38:08.757Z,2.66
2019-03-19T03:40:37.165Z,2.65
2019-03-19T03:43:03.105Z,2.59
2019-03-19T03:45:32.424Z,2.43
2019-03-19T03:47:58.553Z,2.43
2019-03-19T03:50:24.653Z,2.33
2019-03-19T03:52:50.478Z,2.35
2019-03-19T03:55:17.844Z,2.30
2019-03-19T03:57:43.649Z,2.24
2019-03-19T04:00:17.072Z,2.25
2019-03-19T04:02:44.811Z,2.25
2019-03-19T04:05:10.922Z,2.31
2019-03-19T04:07:36.769Z,2.21
2019-03-19T04:10:10.940Z,2.11
2019-03-19T04:12:37.075Z,2.09
2019-03-19T04:15:05.221Z,1.59
2019-03-19T04:17:31.043Z,1.98
2019-03-19T04:19:57.109Z,1.95
2019-03-19T04:22:23.277Z,1.95
2019-03-19T04:24:49.055Z,1.92
2019-03-19T04:27:16.550Z,1.91
2019-03-19T04:29:42.607Z,1.79
2019-03-19T04:32:08.457Z,1.81
2019-03-19T04:34:34.570Z,1.79
2019-03-19T04:37:00.728Z,1.89
2019-03-19T04:39:26.531Z,1.92
2019-03-19T04:41:52.380Z,1.98
2019-03-19T04:44:18.416Z,2.00
2019-03-19T04:46:44.242Z,1.98
2019-03-19T04:49:13.495Z,2.05
2019-03-19T04:51:39.322Z,2.15
2019-03-19T04:54:07.943Z,2.11
2019-03-19T04:56:34.070Z,1.95
2019-03-19T04:59:03.289Z,2.01
2019-03-19T05:01:29.121Z,2.04
2019-03-19T05:03:54.941Z,2.19
2019-03-19T05:06:21.090Z,2.29
2019-03-19T05:08:46.889Z,2.33
2019-03-19T05:11:14.747Z,2.29
2019-03-19T05:13:40.550Z,2.39
2019-03-19T05:16:08.705Z,2.50
2019-03-19T05:18:34.828Z,2.50
2019-03-19T05:21:03.593Z,2.60
2019-03-19T05:23:29.418Z,2.58
2019-03-19T05:26:00.026Z,2.59
2019-03-19T05:28:26.098Z,2.66
2019-03-19T05:30:54.803Z,2.60
2019-03-19T05:33:20.613Z,2.57
2019-03-19T05:35:49.780Z,2.51
2019-03-19T05:38:15.972Z,2.46
2019-03-19T05:40:41.803Z,2.53
2019-03-19T05:43:07.603Z,2.57
2019-03-19T05:45:33.438Z,2.62
2019-03-19T05:47:59.517Z,2.68
2019-03-19T05:50:25.372Z,1.90
2019-03-19T05:52:54.453Z,2.82
2019-03-19T05:55:20.551Z,2.81
2019-03-19T05:57:50.619Z,2.84
2019-03-19T06:00:19.279Z,2.70
2019-03-19T06:02:45.358Z,2.61
2019-03-19T06:05:11.270Z,2.54
2019-03-19T06:07:39.871Z,2.52
2019-03-19T06:10:11.281Z,2.51
2019-03-19T06:12:37.189Z,2.64
2019-03-19T06:15:06.128Z,2.74
2019-03-19T06:17:31.970Z,2.75
2019-03-19T06:19:57.780Z,2.76
2019-03-19T06:22:23.632Z,2.68
2019-03-19T06:24:49.498Z,2.69
2019-03-19T06:27:15.301Z,2.50
2019-03-19T06:29:41.138Z,2.82
2019-03-19T06:32:06.973Z,2.89
2019-03-19T06:34:34.312Z,3.02
2019-03-19T06:37:00.173Z,3.18
2019-03-19T06:39:31.268Z,3.34
2019-03-19T06:41:57.069Z,3.54
2019-03-19T06:44:25.680Z,3.59
2019-03-19T06:46:51.765Z,3.75
2019-03-19T06:49:20.990Z,3.85
2019-03-19T06:51:46.993Z,3.99
2019-03-19T06:54:12.790Z,4.20
2019-03-19T06:56:38.626Z,4.23
2019-03-19T06:59:04.417Z,3.93
2019-03-19T07:01:30.580Z,3.90
2019-03-19T07:03:56.692Z,4.20
2019-03-19T07:06:25.306Z,4.88
2019-03-19T07:08:51.092Z,5.51
2019-03-19T07:11:19.818Z,6.04
2019-03-19T07:13:45.902Z,6.79
2019-03-19T07:16:13.921Z,7.22
2019-03-19T07:18:39.733Z,7.60
2019-03-19T07:21:09.103Z,7.69
2019-03-19T07:23:34.994Z,7.92
2019-03-19T07:26:03.822Z,8.59
2019-03-19T07:28:29.640Z,9.45
2019-03-19T07:30:55.457Z,10.12
2019-03-19T07:33:21.305Z,10.40
2019-03-19T07:35:47.139Z,11.53
2019-03-19T07:38:15.769Z,11.88
2019-03-19T07:40:41.636Z,11.72
2019-03-19T07:43:10.225Z,12.23
2019-03-19T07:45:36.321Z,12.35
2019-03-19T07:48:05.459Z,12.26
2019-03-19T07:50:31.502Z,12.83
2019-03-19T07:53:00.419Z,11.69
2019-03-19T07:55:26.256Z,11.23
2019-03-19T07:57:55.294Z,11.58
2019-03-19T08:00:21.826Z,11.62
2019-03-19T08:02:50.695Z,11.51
2019-03-19T08:05:16.914Z,10.97
2019-03-19T08:07:42.906Z,10.34
2019-03-19T08:10:14.216Z,9.93
2019-03-19T08:12:40.058Z,10.32
2019-03-19T08:15:30.742Z,10.49
2019-03-19T08:17:56.572Z,10.39
2019-03-19T08:20:22.412Z,10.91
2019-03-19T08:22:48.479Z,11.46
2019-03-19T08:25:15.410Z,11.03
2019-03-19T08:27:41.227Z,10.86
2019-03-19T08:30:17.514Z,10.79
2019-03-19T08:32:43.415Z,10.54
2019-03-19T08:35:09.334Z,10.78
2019-03-19T08:37:35.206Z,12.39
2019-03-19T08:40:01.032Z,13.58
2019-03-19T08:42:27.108Z,14.10
2019-03-19T08:44:53.013Z,14.83
2019-03-19T08:47:19.218Z,15.91
2019-03-19T08:49:45.314Z,17.14
2019-03-19T08:52:11.144Z,17.42
2019-03-19T08:54:36.954Z,16.29
2019-03-19T08:57:02.915Z,16.13
2019-03-19T08:59:29.125Z,14.73
2019-03-19T09:01:54.979Z,12.77
2019-03-19T09:04:22.655Z,11.61
2019-03-19T09:06:48.511Z,11.64
2019-03-19T09:09:14.459Z,12.22
2019-03-19T09:11:40.291Z,12.24
2019-03-19T09:14:06.388Z,12.31
2019-03-19T09:16:32.193Z,11.33
2019-03-19T09:18:58.326Z,10.74
2019-03-19T09:21:24.147Z,10.76
2019-03-19T09:23:49.942Z,10.52
2019-03-19T09:26:16.064Z,10.35
2019-03-19T09:28:41.913Z,10.24
2019-03-19T09:31:07.736Z,10.27
2019-03-19T09:33:33.535Z,10.05
2019-03-19T09:35:59.632Z,9.95
2019-03-19T09:38:25.471Z,9.89
2019-03-19T09:40:51.270Z,9.60
2019-03-19T09:43:17.130Z,9.64
2019-03-19T09:45:42.956Z,9.62
2019-03-19T09:48:10.199Z,9.62
2019-03-19T09:50:36.318Z,9.34
2019-03-19T09:53:04.897Z,9.50
2019-03-19T09:55:30.743Z,11.34
2019-03-19T09:57:56.578Z,13.01
2019-03-19T10:00:22.755Z,13.79
2019-03-19T10:02:48.778Z,14.95
2019-03-19T10:05:18.148Z,16.38
2019-03-19T10:07:44.110Z,15.49
2019-03-19T10:10:21.829Z,16.28
2019-03-19T10:12:47.705Z,15.84
2019-03-19T10:15:14.227Z,14.31
2019-03-19T10:17:40.367Z,14.00
2019-03-19T10:20:17.896Z,13.65
2019-03-19T10:22:44.146Z,14.55
2019-03-19T10:25:14.526Z,14.84
2019-03-19T10:27:40.349Z,15.55
2019-03-19T10:30:16.050Z,16.06
2019-03-19T10:32:42.849Z,15.22
2019-03-19T10:35:08.890Z,14.86
2019-03-19T10:37:34.968Z,14.62
2019-03-19T10:40:00.790Z,15.41
2019-03-19T10:42:26.615Z,15.27
2019-03-19T10:44:52.426Z,15.05
2019-03-19T10:47:18.278Z,14.29
2019-03-19T10:49:44.076Z,13.69
2019-03-19T10:52:09.925Z,13.32
2019-03-19T10:54:35.751Z,13.08
2019-03-19T10:57:01.577Z,12.80
2019-03-19T10:59:27.392Z,12.57
2019-03-19T11:01:53.253Z,12.41
2019-03-19T11:04:19.083Z,12.36
2019-03-19T11:06:45.024Z,13.26
2019-03-19T11:09:11.133Z,13.51
2019-03-19T11:11:37.283Z,14.45
2019-03-19T11:14:03.374Z,15.80
2019-03-19T11:16:29.194Z,16.51
2019-03-19T11:18:55.097Z,17.10
2019-03-19T11:21:21.157Z,17.83
2019-03-19T11:23:47.263Z,18.32
2019-03-19T11:26:13.123Z,18.73
2019-03-19T11:28:38.934Z,18.84
2019-03-19T11:31:04.766Z,18.83
2019-03-19T11:33:33.755Z,17.35
2019-03-19T11:35:59.858Z,16.64
2019-03-19T11:38:28.785Z,15.86
2019-03-19T11:40:54.729Z,15.15
2019-03-19T11:43:20.571Z,14.66
2019-03-19T11:45:46.709Z,15.46
2019-03-19T11:48:12.545Z,16.25
2019-03-19T11:50:38.362Z,16.92
2019-03-19T11:53:04.294Z,17.34
2019-03-19T11:55:33.164Z,17.14
2019-03-19T11:57:59.143Z,16.56
2019-03-19T12:00:54.551Z,16.53
2019-03-19T12:03:20.399Z,17.48
2019-03-19T12:05:46.462Z,18.16
2019-03-19T12:08:12.327Z,17.31
2019-03-19T12:10:38.170Z,15.79
2019-03-19T12:13:04.292Z,15.39
2019-03-19T12:15:30.626Z,14.75
2019-03-19T12:17:56.478Z,14.52
2019-03-19T12:20:22.559Z,14.42
2019-03-19T12:22:48.657Z,14.28
2019-03-19T12:25:14.830Z,14.01
2019-03-19T12:27:40.842Z,14.00
2019-03-19T12:30:22.077Z,13.97
2019-03-19T12:32:44.676Z,13.96
2019-03-19T12:35:11.566Z,14.84
2019-03-19T12:37:37.634Z,15.69
2019-03-19T12:40:07.041Z,16.36
2019-03-19T12:42:32.881Z,16.24
2019-03-19T12:44:58.998Z,16.28
2019-03-19T12:47:24.872Z,16.76
2019-03-19T12:49:50.676Z,17.13
2019-03-19T12:52:16.527Z,17.23
2019-03-19T12:54:42.610Z,17.36
2019-03-19T12:57:08.732Z,17.65
2019-03-19T12:59:34.573Z,18.33
2019-03-19T13:02:00.396Z,18.33
2019-03-19T13:04:26.242Z,18.15
2019-03-19T13:06:52.067Z,17.12
2019-03-19T13:09:17.899Z,16.31
2019-03-19T13:11:43.717Z,15.84
2019-03-19T13:14:09.554Z,15.66
2019-03-19T13:16:35.331Z,15.19
2019-03-19T13:19:01.212Z,14.69
2019-03-19T13:21:27.014Z,14.64
2019-03-19T13:23:52.832Z,14.69
2019-03-19T13:26:18.756Z,14.79
2019-03-19T13:28:44.597Z,15.10
2019-03-19T13:31:10.396Z,15.61
2019-03-19T13:33:36.264Z,16.20
2019-03-19T13:36:02.564Z,16.11
2019-03-19T13:38:28.648Z,15.38
2019-03-19T13:40:54.477Z,15.14
2019-03-19T13:43:20.285Z,14.80
2019-03-19T13:45:46.122Z,14.88
2019-03-19T13:48:12.005Z,15.52
2019-03-19T13:50:37.778Z,16.03
2019-03-19T13:53:03.607Z,16.13
2019-03-19T13:55:29.523Z,16.32
2019-03-19T13:57:55.361Z,16.05
2019-03-19T14:00:21.181Z,15.33
2019-03-19T14:02:47.014Z,14.94
2019-03-19T14:05:13.468Z,15.26
2019-03-19T14:07:39.713Z,15.62
2019-03-19T14:10:09.240Z,15.99
2019-03-19T14:12:35.356Z,16.25
2019-03-19T14:15:01.316Z,16.38
2019-03-19T14:17:27.451Z,16.71
2019-03-19T14:19:53.285Z,17.04
2019-03-19T14:22:19.186Z,16.28
2019-03-19T14:24:45.213Z,16.53
2019-03-19T14:27:11.060Z,16.78
2019-03-19T14:29:36.863Z,16.79
2019-03-19T14:32:04.023Z,17.08
2019-03-19T14:34:30.117Z,17.48
2019-03-19T14:36:56.185Z,17.92
2019-03-19T14:39:22.291Z,17.94
2019-03-19T14:41:48.150Z,17.55
2019-03-19T14:44:13.985Z,17.55
2019-03-19T14:46:40.076Z,17.73
2019-03-19T14:49:05.951Z,18.36
2019-03-19T14:51:32.009Z,18.36
2019-03-19T14:53:57.866Z,17.96
2019-03-19T14:56:23.975Z,17.96
2019-03-19T14:58:50.055Z,16.41
2019-03-19T15:01:19.600Z,16.41
2019-03-19T15:03:43.634Z,16.10
2019-03-19T15:06:10.326Z,16.87
2019-03-19T15:08:36.223Z,16.87
2019-03-19T15:11:02.054Z,17.18
2019-03-19T15:13:27.871Z,17.68
2019-03-19T15:15:53.702Z,18.12
2019-03-19T15:18:19.518Z,17.82
2019-03-19T15:20:45.646Z,18.12
2019-03-19T15:23:11.487Z,18.21
2019-03-19T15:25:37.369Z,18.16
2019-03-19T15:28:06.523Z,18.15
2019-03-19T15:30:32.746Z,18.44
2019-03-19T15:33:01.576Z,18.73
2019-03-19T15:35:27.391Z,18.94
2019-03-19T15:37:55.975Z,19.02
2019-03-19T15:40:21.804Z,18.93
2019-03-19T15:42:50.406Z,18.97
2019-03-19T15:45:18.851Z,19.18
2019-03-19T15:47:44.723Z,19.21
2019-03-19T15:50:12.529Z,19.12
2019-03-19T15:52:38.340Z,18.99
2019-03-19T15:55:05.530Z,19.13
2019-03-19T15:57:31.319Z,18.91
2019-03-19T15:59:57.435Z,18.55
2019-03-19T16:02:23.266Z,18.28
2019-03-19T16:04:52.038Z,18.36
2019-03-19T16:07:17.876Z,18.15
2019-03-19T16:09:46.462Z,18.24
2019-03-19T16:12:12.279Z,18.07
2019-03-19T16:14:40.855Z,17.84
2019-03-19T16:17:06.684Z,17.13
2019-03-19T16:19:34.740Z,17.14
2019-03-19T16:22:00.845Z,17.00
2019-03-19T16:24:26.957Z,17.18
2019-03-19T16:26:52.761Z,17.19
2019-03-19T16:29:18.570Z,16.81
2019-03-19T16:31:51.163Z,16.42
2019-03-19T16:34:14.889Z,16.35
2019-03-19T16:36:43.919Z,16.20
2019-03-19T16:39:09.836Z,15.86
2019-03-19T16:41:39.068Z,15.20
2019-03-19T16:44:05.179Z,14.96
2019-03-19T16:46:31.295Z,14.72
2019-03-19T16:48:57.391Z,14.65
2019-03-19T16:51:25.650Z,14.52
2019-03-19T16:53:51.449Z,14.23
2019-03-19T16:56:22.322Z,13.96
2019-03-19T16:58:48.418Z,13.76
2019-03-19T17:01:14.256Z,13.72
2019-03-19T17:03:40.058Z,13.49
2019-03-19T17:06:05.896Z,13.28
2019-03-19T17:08:34.475Z,13.07
2019-03-19T17:11:00.253Z,13.09
2019-03-19T17:13:28.836Z,12.94
2019-03-19T17:15:54.677Z,12.91
2019-03-19T17:18:23.320Z,12.73
2019-03-19T17:20:49.156Z,12.51
2019-03-19T17:23:16.386Z,12.16
2019-03-19T17:25:42.201Z,11.98
2019-03-19T17:28:22.081Z,11.74
2019-03-19T17:30:40.530Z,11.58
2019-03-19T17:33:06.392Z,11.34
2019-03-19T17:35:32.326Z,11.02
2019-03-19T17:37:58.135Z,10.76
2019-03-19T17:40:24.088Z,10.65
2019-03-19T17:42:49.912Z,10.40
2019-03-19T17:45:18.721Z,10.08
2019-03-19T17:47:44.853Z,10.09
2019-03-19T17:50:34.161Z,10.06
2019-03-19T17:53:00.021Z,9.86
2019-03-19T17:55:26.196Z,9.77
2019-03-19T17:57:52.035Z,9.75
2019-03-19T18:00:21.518Z,9.53
2019-03-19T18:02:47.594Z,9.40
2019-03-19T18:05:13.468Z,9.28
2019-03-19T18:07:39.258Z,9.18
2019-03-19T18:10:09.844Z,9.13
2019-03-19T18:12:35.731Z,8.92
2019-03-19T18:15:01.641Z,8.81
2019-03-19T18:17:27.499Z,8.72
2019-03-19T18:19:53.575Z,8.66
2019-03-19T18:22:19.409Z,8.50
2019-03-19T18:24:45.489Z,8.45
2019-03-19T18:27:11.369Z,8.41
2019-03-19T18:29:37.418Z,8.24
2019-03-19T18:32:03.531Z,8.09
2019-03-19T18:34:29.345Z,8.12
2019-03-19T18:36:55.138Z,8.12
2019-03-19T18:39:21.269Z,7.93
2019-03-19T18:41:47.134Z,7.92
2019-03-19T18:44:12.953Z,7.86
2019-03-19T18:46:38.959Z,7.86
2019-03-19T18:49:04.745Z,7.69
2019-03-19T18:51:30.598Z,7.60
2019-03-19T18:53:56.440Z,7.48
2019-03-19T18:56:22.397Z,7.37
2019-03-19T18:58:48.245Z,7.30
2019-03-19T19:01:14.052Z,7.31
2019-03-19T19:03:42.697Z,7.22
2019-03-19T19:06:08.496Z,7.21
2019-03-19T19:08:38.066Z,7.14
2019-03-19T19:11:03.910Z,7.12
2019-03-19T19:13:32.779Z,6.89
2019-03-19T19:15:58.619Z,6.72
2019-03-19T19:18:28.165Z,6.55
2019-03-19T19:20:53.975Z,6.61
2019-03-19T19:23:22.870Z,6.61
2019-03-19T19:25:48.742Z,6.48
2019-03-19T19:28:14.531Z,6.46
2019-03-19T19:30:40.380Z,6.41
2019-03-19T19:33:06.205Z,6.42
2019-03-19T19:35:34.921Z,6.39
2019-03-19T19:38:03.222Z,6.39
2019-03-19T19:40:28.834Z,6.35
2019-03-19T19:42:54.687Z,6.26
2019-03-19T19:45:23.359Z,6.13
2019-03-19T19:47:49.455Z,6.00
2019-03-19T19:50:22.108Z,5.90
2019-03-19T19:52:48.364Z,5.89
2019-03-19T19:55:14.409Z,5.87
2019-03-19T19:57:40.216Z,5.52
2019-03-19T20:00:15.042Z,5.55
2019-03-19T20:02:40.981Z,5.40
2019-03-19T20:05:07.183Z,5.28
2019-03-19T20:07:33.009Z,5.23
2019-03-19T20:09:59.145Z,5.28
2019-03-19T20:12:25.258Z,5.19
2019-03-19T20:14:51.086Z,5.15
2019-03-19T20:17:16.918Z,5.17
2019-03-19T20:19:43.055Z,5.08
2019-03-19T20:22:08.851Z,5.09
2019-03-19T20:24:34.697Z,5.16
2019-03-19T20:27:03.305Z,5.22
2019-03-19T20:29:29.131Z,5.23
2019-03-19T20:31:57.738Z,5.07
2019-03-19T20:34:23.519Z,4.95
2019-03-19T20:36:52.373Z,4.90
2019-03-19T20:39:18.268Z,4.79
2019-03-19T20:41:44.130Z,4.88
2019-03-19T20:44:10.261Z,4.82
2019-03-19T20:46:36.308Z,4.70
2019-03-19T20:49:04.930Z,4.70
2019-03-19T20:51:31.069Z,4.58
2019-03-19T20:54:00.219Z,4.55
2019-03-19T20:56:26.072Z,4.68
2019-03-19T20:58:54.993Z,4.63
2019-03-19T21:01:20.789Z,4.64
2019-03-19T21:03:49.755Z,4.45
2019-03-19T21:06:15.562Z,4.39
2019-03-19T21:08:44.127Z,4.32
2019-03-19T21:11:09.920Z,4.28
2019-03-19T21:13:38.792Z,4.25
2019-03-19T21:16:05.010Z,4.27
2019-03-19T21:18:30.865Z,4.13
2019-03-19T21:20:57.015Z,4.14
2019-03-19T21:23:23.127Z,4.18
2019-03-19T21:25:52.339Z,4.13
2019-03-19T21:28:18.200Z,4.10
2019-03-19T21:30:44.350Z,4.13
2019-03-19T21:33:10.194Z,4.16
2019-03-19T21:35:39.155Z,3.93
2019-03-19T21:38:04.967Z,3.82
2019-03-19T21:40:33.907Z,3.77
2019-03-19T21:42:59.819Z,3.70
2019-03-19T21:45:28.881Z,3.81
2019-03-19T21:47:54.699Z,3.75
2019-03-19T21:50:23.988Z,3.71
2019-03-19T21:52:49.800Z,3.67
2019-03-19T21:55:15.919Z,3.65
2019-03-19T21:57:41.766Z,3.62
2019-03-19T22:00:13.256Z,3.41
2019-03-19T22:02:39.194Z,3.28
2019-03-19T22:05:06.191Z,3.27
2019-03-19T22:07:32.026Z,3.32
2019-03-19T22:09:57.858Z,3.30
2019-03-19T22:12:26.476Z,3.09
2019-03-19T22:14:52.279Z,2.89
2019-03-19T22:17:21.007Z,2.85
2019-03-19T22:19:47.123Z,2.92
2019-03-19T22:22:15.682Z,2.99
2019-03-19T22:24:41.788Z,2.99
2019-03-19T22:27:10.974Z,3.01
2019-03-19T22:29:36.827Z,3.09
2019-03-19T22:32:02.943Z,2.87
2019-03-19T22:34:29.111Z,2.86
2019-03-19T22:36:54.943Z,2.97
2019-03-19T22:39:21.053Z,3.06
2019-03-19T22:41:47.144Z,3.07
2019-03-19T22:44:15.764Z,2.98
2019-03-19T22:46:41.588Z,2.89
2019-03-19T22:49:10.157Z,2.89
2019-03-19T22:51:36.252Z,2.82
2019-03-19T22:54:05.411Z,2.73
2019-03-19T22:56:31.739Z,2.79
2019-03-19T22:58:58.753Z,2.82
2019-03-19T23:01:24.955Z,2.72
2019-03-19T23:03:53.468Z,2.68
2019-03-19T23:06:19.305Z,2.72
2019-03-19T23:08:45.185Z,2.75
2019-03-19T23:11:11.032Z,2.74
2019-03-19T23:13:36.859Z,2.69
2019-03-19T23:16:07.492Z,2.64
2019-03-19T23:18:33.430Z,2.54
2019-03-19T23:21:02.741Z,2.29
2019-03-19T23:23:28.585Z,2.25
2019-03-19T23:25:57.399Z,2.25
2019-03-19T23:28:23.394Z,2.34
2019-03-19T23:30:49.559Z,2.39
2019-03-19T23:33:15.420Z,2.43
2019-03-19T23:35:43.962Z,2.52
2019-03-19T23:38:09.783Z,2.45
2019-03-19T23:40:40.166Z,2.41
2019-03-19T23:43:06.317Z,2.52
2019-03-19T23:45:32.172Z,2.60
2019-03-19T23:47:57.966Z,2.61
2019-03-19T23:50:23.762Z,2.50
2019-03-19T23:52:51.204Z,2.50
2019-03-19T23:55:17.075Z,2.44
2019-03-19T23:57:47.766Z,2.40
